createdAt,value
2022-12-28T00:02:31.846Z,1.02
2022-12-28T00:04:59.058Z,1.00
2022-12-28T00:07:29.460Z,0.90
2022-12-28T00:09:58.603Z,0.90
2022-12-28T00:12:26.521Z,1.00
2022-12-28T00:14:56.172Z,0.95
2022-12-28T00:17:28.956Z,1.35
2022-12-28T00:20:02.284Z,0.73
2022-12-28T00:22:32.645Z,1.05
2022-12-28T00:25:07.954Z,1.00
2022-12-28T00:27:37.735Z,1.20
2022-12-28T00:30:08.271Z,0.98
2022-12-28T00:32:35.597Z,0.95
2022-12-28T00:35:03.068Z,1.20
2022-12-28T00:37:33.688Z,0.95
2022-12-28T00:40:09.536Z,1.10
2022-12-28T00:42:45.953Z,0.82
2022-12-28T00:45:18.573Z,0.80
2022-12-28T00:47:51.311Z,1.10
2022-12-28T00:50:20.815Z,1.08
2022-12-28T00:52:56.875Z,1.08
2022-12-28T00:55:27.454Z,1.00
2022-12-28T00:57:59.638Z,0.82
2022-12-28T01:00:32.769Z,0.90
2022-12-28T01:03:06.466Z,0.85
2022-12-28T01:05:39.551Z,1.20
2022-12-28T01:08:11.902Z,0.93
2022-12-28T01:10:46.362Z,1.02
2022-12-28T01:13:22.923Z,0.80
2022-12-28T01:15:52.662Z,0.90
2022-12-28T01:18:22.669Z,0.85
2022-12-28T01:20:55.531Z,1.00
2022-12-28T01:23:25.728Z,1.13
2022-12-28T01:25:55.706Z,0.93
2022-12-28T01:28:28.965Z,1.00
2022-12-28T01:31:04.461Z,1.10
2022-12-28T01:33:39.695Z,1.20
2022-12-28T01:36:16.518Z,1.27
2022-12-28T01:38:49.623Z,0.90
2022-12-28T01:41:20.287Z,1.05
2022-12-28T01:43:55.686Z,0.90
2022-12-28T01:46:33.462Z,0.80
2022-12-28T01:49:08.901Z,1.30
2022-12-28T01:51:45.523Z,0.77
2022-12-28T01:54:15.703Z,0.80
2022-12-28T01:56:46.549Z,0.80
2022-12-28T01:59:16.397Z,0.82
2022-12-28T02:01:47.156Z,0.88
2022-12-28T02:04:17.159Z,0.95
2022-12-28T02:06:50.100Z,1.30
2022-12-28T02:09:35.349Z,1.20
2022-12-28T02:12:03.921Z,0.98
2022-12-28T02:14:44.661Z,0.98
2022-12-28T02:17:15.262Z,1.10
2022-12-28T02:19:53.567Z,1.00
2022-12-28T02:22:35.260Z,1.17
2022-12-28T02:25:20.751Z,1.10
2022-12-28T02:27:53.603Z,1.10
2022-12-28T02:30:25.581Z,1.15
2022-12-28T02:33:01.703Z,1.17
2022-12-28T02:35:43.493Z,1.48
2022-12-28T02:38:22.219Z,1.20
2022-12-28T02:40:54.899Z,1.30
2022-12-28T02:43:30.702Z,1.20
2022-12-28T02:46:36.006Z,1.30
2022-12-28T02:49:34.693Z,1.13
2022-12-28T02:52:16.481Z,1.20
2022-12-28T02:55:07.954Z,1.05
2022-12-28T02:57:38.218Z,1.00
2022-12-28T03:00:11.646Z,1.30
2022-12-28T03:02:41.558Z,1.15
2022-12-28T03:05:17.914Z,1.20
2022-12-28T03:08:20.425Z,1.40
2022-12-28T03:10:53.596Z,1.27
2022-12-28T03:13:45.057Z,1.05
2022-12-28T03:16:28.171Z,1.40
2022-12-28T03:19:24.646Z,1.27
2022-12-28T03:22:14.411Z,0.93
2022-12-28T03:25:01.858Z,1.10
2022-12-28T03:27:48.995Z,1.20
2022-12-28T03:30:39.189Z,1.40
2022-12-28T03:33:06.889Z,1.02
2022-12-28T03:35:54.320Z,1.20
2022-12-28T03:38:27.803Z,1.08
2022-12-28T03:41:02.637Z,1.00
2022-12-28T03:43:42.991Z,1.35
2022-12-28T03:46:23.160Z,1.17
2022-12-28T03:48:53.895Z,1.25
2022-12-28T03:51:30.124Z,1.05
2022-12-28T03:54:03.313Z,0.90
2022-12-28T03:56:39.892Z,0.95
2022-12-28T03:59:09.601Z,1.23
2022-12-28T04:01:42.055Z,1.30
2022-12-28T04:04:14.794Z,1.42
2022-12-28T04:06:47.812Z,1.30
2022-12-28T04:09:18.311Z,1.35
2022-12-28T04:11:48.289Z,1.13
2022-12-28T04:14:18.291Z,1.20
2022-12-28T04:16:51.450Z,0.93
2022-12-28T04:19:21.362Z,1.20
2022-12-28T04:21:54.685Z,1.10
2022-12-28T04:24:23.937Z,1.10
2022-12-28T04:26:54.342Z,0.88
2022-12-28T04:29:26.757Z,0.80
2022-12-28T04:32:02.554Z,1.20
2022-12-28T04:34:32.798Z,1.10
2022-12-28T04:36:59.845Z,1.10
2022-12-28T04:39:55.639Z,0.90
2022-12-28T04:42:27.402Z,1.15
2022-12-28T04:44:58.578Z,1.00
2022-12-28T04:47:30.708Z,1.20
2022-12-28T04:50:00.984Z,1.10
2022-12-28T04:52:31.906Z,1.23
2022-12-28T04:55:04.607Z,1.48
2022-12-28T04:57:35.543Z,1.92
2022-12-28T05:00:08.942Z,1.30
2022-12-28T05:02:39.278Z,1.30
2022-12-28T05:05:12.236Z,1.55
2022-12-28T05:07:42.529Z,1.20
2022-12-28T05:10:15.286Z,1.65
2022-12-28T05:12:48.211Z,1.48
2022-12-28T05:15:20.916Z,1.50
2022-12-28T05:17:50.482Z,2.10
2022-12-28T05:20:23.702Z,1.88
2022-12-28T05:22:53.048Z,1.27
2022-12-28T05:25:22.941Z,1.30
2022-12-28T05:28:00.986Z,1.60
2022-12-28T05:30:36.352Z,1.70
2022-12-28T05:33:08.767Z,1.50
2022-12-28T05:35:41.116Z,1.95
2022-12-28T05:38:11.562Z,1.60
2022-12-28T05:40:44.539Z,1.83
2022-12-28T05:43:14.305Z,1.55
2022-12-28T05:45:49.987Z,1.33
2022-12-28T05:48:23.642Z,2.10
2022-12-28T05:50:57.012Z,1.60
2022-12-28T05:53:29.375Z,1.73
2022-12-28T05:56:13.971Z,1.00
2022-12-28T05:58:48.439Z,1.40
2022-12-28T06:01:20.413Z,1.48
2022-12-28T06:03:51.334Z,1.70
2022-12-28T06:06:22.613Z,1.63
2022-12-28T06:08:56.003Z,1.55
2022-12-28T06:11:31.224Z,1.90
2022-12-28T06:14:03.751Z,2.22
2022-12-28T06:16:35.364Z,1.52
2022-12-28T06:19:12.345Z,2.22
2022-12-28T06:21:45.037Z,2.35
2022-12-28T06:24:20.455Z,2.45
2022-12-28T06:26:51.352Z,2.05
2022-12-28T06:29:24.532Z,2.13
2022-12-28T06:31:55.043Z,1.90
2022-12-28T06:34:22.582Z,1.50
2022-12-28T06:36:51.125Z,2.10
2022-12-28T06:39:23.891Z,1.98
2022-12-28T06:42:00.054Z,2.92
2022-12-28T06:44:30.989Z,2.28
2022-12-28T06:47:02.168Z,2.40
2022-12-28T06:49:34.948Z,1.17
2022-12-28T06:52:02.362Z,1.35
2022-12-28T06:54:31.814Z,1.95
2022-12-28T06:57:02.492Z,1.98
2022-12-28T06:59:34.908Z,2.40
2022-12-28T07:02:02.571Z,2.53
2022-12-28T07:04:32.815Z,1.92
2022-12-28T07:07:05.626Z,1.50
2022-12-28T07:09:38.603Z,2.47
2022-12-28T07:12:11.168Z,1.27
2022-12-28T07:14:41.270Z,1.42
2022-12-28T07:17:14.704Z,1.92
2022-12-28T07:19:44.852Z,1.25
2022-12-28T07:22:16.236Z,2.22
2022-12-28T07:24:43.027Z,1.85
2022-12-28T07:27:16.311Z,2.55
2022-12-28T07:29:44.173Z,2.10
2022-12-28T07:32:14.252Z,1.73
2022-12-28T07:34:44.483Z,1.48
2022-12-28T07:37:16.988Z,2.40
2022-12-28T07:39:49.290Z,1.23
2022-12-28T07:42:21.711Z,2.05
2022-12-28T07:44:57.910Z,1.95
2022-12-28T07:47:29.322Z,1.73
2022-12-28T07:50:03.193Z,2.00
2022-12-28T07:52:35.820Z,2.00
2022-12-28T07:55:05.048Z,2.80
2022-12-28T07:57:36.358Z,2.53
2022-12-28T08:00:04.151Z,1.90
2022-12-28T08:02:36.964Z,2.30
2022-12-28T08:05:07.420Z,2.20
2022-12-28T08:07:37.572Z,1.83
2022-12-28T08:10:10.801Z,2.30
2022-12-28T08:12:37.617Z,1.80
2022-12-28T08:15:08.070Z,2.67
2022-12-28T08:17:40.671Z,2.30
2022-12-28T08:20:12.570Z,2.00
2022-12-28T08:22:47.841Z,2.08
2022-12-28T08:25:21.059Z,2.30
2022-12-28T08:27:47.979Z,1.70
2022-12-28T08:30:24.301Z,2.13
2022-12-28T08:32:52.368Z,1.70
2022-12-28T08:35:24.899Z,1.83
2022-12-28T08:37:55.265Z,1.45
2022-12-28T08:40:22.953Z,1.20
2022-12-28T08:42:58.769Z,1.38
2022-12-28T08:45:32.335Z,1.50
2022-12-28T08:48:04.790Z,1.40
2022-12-28T08:50:35.303Z,1.40
2022-12-28T08:53:07.854Z,1.70
2022-12-28T08:55:43.423Z,1.95
2022-12-28T08:58:15.476Z,1.67
2022-12-28T09:00:43.238Z,1.75
2022-12-28T09:03:18.869Z,1.75
2022-12-28T09:05:54.652Z,2.13
2022-12-28T09:08:28.116Z,1.75
2022-12-28T09:10:57.844Z,2.15
2022-12-28T09:13:30.276Z,2.10
2022-12-28T09:16:19.248Z,2.10
2022-12-28T09:18:48.631Z,1.50
2022-12-28T09:21:20.373Z,1.90
2022-12-28T09:23:51.356Z,2.05
2022-12-28T09:26:25.189Z,1.90
2022-12-28T09:28:59.601Z,1.63
2022-12-28T09:31:37.553Z,1.83
2022-12-28T09:37:00.918Z,1.80
2022-12-28T09:39:28.871Z,1.58
2022-12-28T09:42:10.083Z,1.80
2022-12-28T09:44:56.261Z,1.10
2022-12-28T09:47:33.543Z,1.00
2022-12-28T09:50:08.028Z,1.13
2022-12-28T09:52:49.386Z,1.50
2022-12-28T09:55:20.689Z,1.70
2022-12-28T09:57:58.803Z,1.40
2022-12-28T10:00:28.822Z,1.13
2022-12-28T10:03:11.101Z,0.93
2022-12-28T10:05:43.936Z,1.27
2022-12-28T10:08:19.073Z,1.20
2022-12-28T10:10:49.542Z,1.27
2022-12-28T10:13:52.969Z,1.17
2022-12-28T10:16:18.325Z,1.00
2022-12-28T10:18:51.859Z,1.10
2022-12-28T10:21:29.959Z,0.85
2022-12-28T10:24:30.933Z,1.27
2022-12-28T10:26:59.116Z,1.02
2022-12-28T10:29:26.662Z,1.08
2022-12-28T10:32:03.157Z,1.20
2022-12-28T10:34:36.991Z,1.20
2022-12-28T10:37:06.651Z,1.17
2022-12-28T10:39:47.921Z,1.10
2022-12-28T10:42:40.497Z,1.55
2022-12-28T10:45:18.274Z,1.23
2022-12-28T10:47:53.170Z,1.30
2022-12-28T10:50:42.416Z,0.60
2022-12-28T10:53:27.601Z,1.00
2022-12-28T10:56:13.274Z,0.98
2022-12-28T10:58:48.170Z,0.82
2022-12-28T11:01:18.660Z,1.83
2022-12-28T11:04:07.096Z,1.33
2022-12-28T11:06:50.548Z,1.08
2022-12-28T11:09:25.288Z,1.08
2022-12-28T11:11:56.235Z,1.27
2022-12-28T11:14:30.464Z,1.08
2022-12-28T11:17:00.589Z,1.30
2022-12-28T11:19:27.774Z,1.20
2022-12-28T11:21:54.855Z,1.30
2022-12-28T11:24:46.020Z,1.48
2022-12-28T11:27:15.247Z,1.42
2022-12-28T11:29:46.780Z,1.30
2022-12-28T11:32:23.361Z,1.02
2022-12-28T11:34:54.837Z,0.93
2022-12-28T11:37:23.295Z,1.60
2022-12-28T11:39:54.715Z,1.55
2022-12-28T11:42:41.259Z,1.00
2022-12-28T11:45:37.508Z,1.10
2022-12-28T11:48:42.905Z,1.23
2022-12-28T11:51:20.813Z,0.60
2022-12-28T11:53:47.698Z,0.98
2022-12-28T11:56:17.870Z,1.02
2022-12-28T11:59:08.006Z,0.68
2022-12-28T12:01:43.502Z,0.90
2022-12-28T12:04:30.523Z,0.90
2022-12-28T12:07:03.786Z,0.85
2022-12-28T12:09:38.842Z,0.82
2022-12-28T12:12:17.944Z,0.82
2022-12-28T12:14:58.577Z,1.23
2022-12-28T12:17:36.812Z,0.90
2022-12-28T12:20:19.269Z,0.75
2022-12-28T12:22:59.380Z,1.00
2022-12-28T12:25:43.190Z,1.20
2022-12-28T12:28:24.406Z,1.02
2022-12-28T12:30:55.356Z,1.02
2022-12-28T12:33:28.433Z,1.70
2022-12-28T12:36:04.270Z,1.10
2022-12-28T12:38:41.084Z,0.60
2022-12-28T12:41:29.744Z,0.90
2022-12-28T12:44:07.022Z,0.98
2022-12-28T12:46:43.246Z,1.13
2022-12-28T12:49:29.453Z,0.90
2022-12-28T12:52:32.323Z,1.10
2022-12-28T12:55:11.318Z,1.05
2022-12-28T12:57:38.411Z,0.90
2022-12-28T13:00:14.818Z,0.98
2022-12-28T13:02:56.893Z,1.17
2022-12-28T13:05:27.189Z,1.08
2022-12-28T13:07:59.561Z,1.23
2022-12-28T13:10:28.685Z,1.27
2022-12-28T13:13:04.263Z,1.17
2022-12-28T13:15:31.635Z,0.75
2022-12-28T13:21:07.380Z,0.95
2022-12-28T13:23:45.684Z,0.73
2022-12-28T13:26:16.435Z,0.77
2022-12-28T13:28:53.125Z,0.88
2022-12-28T13:31:35.142Z,1.13
2022-12-28T13:34:22.519Z,0.90
2022-12-28T13:36:54.110Z,0.80
2022-12-28T13:39:25.430Z,0.95
2022-12-28T13:41:56.770Z,0.98
2022-12-28T13:44:41.583Z,1.00
2022-12-28T13:47:12.019Z,0.70
2022-12-28T13:49:47.782Z,0.73
2022-12-28T13:52:21.220Z,0.90
2022-12-28T13:54:58.375Z,1.08
2022-12-28T13:57:46.763Z,1.27
2022-12-28T14:00:21.854Z,1.20
2022-12-28T14:02:49.901Z,1.00
2022-12-28T14:05:25.083Z,1.00
2022-12-28T14:07:55.640Z,0.82
2022-12-28T14:10:28.580Z,1.25
2022-12-28T14:12:57.213Z,1.25
2022-12-28T14:15:24.363Z,1.02
2022-12-28T14:17:55.154Z,1.15
2022-12-28T14:20:28.088Z,0.98
2022-12-28T14:22:57.496Z,1.17
2022-12-28T14:25:35.621Z,1.02
2022-12-28T14:28:06.612Z,0.90
2022-12-28T14:30:41.816Z,1.30
2022-12-28T14:33:24.629Z,0.95
2022-12-28T14:36:02.608Z,1.27
2022-12-28T14:38:35.801Z,0.80
2022-12-28T14:41:07.341Z,0.95
2022-12-28T14:43:37.219Z,1.02
2022-12-28T14:46:30.973Z,1.00
2022-12-28T14:49:00.614Z,0.95
2022-12-28T14:51:29.684Z,1.17
2022-12-28T14:54:15.130Z,0.90
2022-12-28T14:56:47.242Z,1.30
2022-12-28T14:59:21.696Z,1.27
2022-12-28T15:01:49.116Z,0.75
2022-12-28T15:04:30.131Z,1.30
2022-12-28T15:07:03.687Z,1.10
2022-12-28T15:09:36.591Z,1.10
2022-12-28T15:12:10.973Z,0.98
2022-12-28T15:14:40.538Z,1.30
2022-12-28T15:17:33.479Z,1.20
2022-12-28T15:20:03.822Z,1.23
2022-12-28T15:22:33.248Z,1.15
2022-12-28T15:25:03.941Z,1.50
2022-12-28T15:27:33.636Z,1.30
2022-12-28T15:30:05.858Z,1.25
2022-12-28T15:32:40.296Z,1.92
2022-12-28T15:35:13.457Z,1.58
2022-12-28T15:37:49.660Z,1.20
2022-12-28T15:40:25.700Z,1.45
2022-12-28T15:42:56.125Z,1.05
2022-12-28T15:45:29.298Z,1.40
2022-12-28T15:48:00.184Z,1.58
2022-12-28T15:50:33.492Z,1.30
2022-12-28T15:53:03.542Z,1.30
2022-12-28T15:55:34.417Z,1.25
2022-12-28T15:58:04.933Z,1.60
2022-12-28T16:00:36.305Z,1.63
2022-12-28T16:03:12.580Z,1.50
2022-12-28T16:05:43.395Z,1.77
2022-12-28T16:08:16.736Z,1.52
2022-12-28T16:10:48.488Z,1.25
2022-12-28T16:13:24.556Z,1.40
2022-12-28T16:15:51.723Z,1.50
2022-12-28T16:18:27.816Z,0.85
2022-12-28T16:21:03.121Z,1.30
2022-12-28T16:23:35.781Z,1.63
2022-12-28T16:26:03.203Z,1.30
2022-12-28T16:28:33.845Z,1.55
2022-12-28T16:31:07.537Z,1.25
2022-12-28T16:33:39.060Z,1.23
2022-12-28T16:36:14.813Z,1.20
2022-12-28T16:38:55.762Z,1.15
2022-12-28T16:41:36.283Z,1.40
2022-12-28T16:44:17.769Z,1.00
2022-12-28T16:46:51.551Z,1.02
2022-12-28T16:49:22.582Z,1.20
2022-12-28T16:51:52.862Z,1.10
2022-12-28T16:54:29.396Z,1.02
2022-12-28T16:57:02.522Z,1.10
2022-12-28T16:59:36.091Z,0.85
2022-12-28T17:02:06.516Z,1.17
2022-12-28T17:04:39.613Z,1.33
2022-12-28T17:07:12.457Z,0.93
2022-12-28T17:09:49.972Z,1.13
2022-12-28T17:12:19.130Z,0.98
2022-12-28T17:14:52.204Z,1.40
2022-12-28T17:17:22.853Z,1.05
2022-12-28T17:19:55.327Z,1.45
2022-12-28T17:22:31.330Z,1.10
2022-12-28T17:25:04.776Z,1.30
2022-12-28T17:27:41.037Z,1.13
2022-12-28T17:30:13.852Z,1.35
2022-12-28T17:32:44.767Z,1.30
2022-12-28T17:35:16.290Z,1.52
2022-12-28T17:37:47.014Z,1.52
2022-12-28T17:40:17.419Z,1.40
2022-12-28T17:42:49.290Z,1.25
2022-12-28T17:45:16.774Z,1.15
2022-12-28T17:47:47.488Z,1.10
2022-12-28T17:50:18.704Z,1.10
2022-12-28T17:52:51.876Z,1.15
2022-12-28T17:55:25.167Z,1.38
2022-12-28T17:58:01.842Z,1.30
2022-12-28T18:00:35.261Z,1.15
2022-12-28T18:03:07.733Z,1.20
2022-12-28T18:05:38.212Z,0.98
2022-12-28T18:08:14.286Z,1.10
2022-12-28T18:10:41.534Z,0.98
2022-12-28T18:13:16.899Z,1.20
2022-12-28T18:15:50.115Z,1.08
2022-12-28T18:18:21.863Z,1.38
2022-12-28T18:21:07.947Z,1.08
2022-12-28T18:23:38.093Z,0.90
2022-12-28T18:26:16.905Z,0.88
2022-12-28T18:28:46.187Z,0.85
2022-12-28T18:31:13.711Z,0.80
2022-12-28T18:33:47.272Z,0.90
2022-12-28T18:36:18.506Z,0.88
2022-12-28T18:38:50.066Z,1.10
2022-12-28T18:41:32.032Z,1.10
2022-12-28T18:44:09.336Z,1.27
2022-12-28T18:46:40.539Z,1.00
2022-12-28T18:49:11.524Z,0.90
2022-12-28T18:51:38.802Z,1.00
2022-12-28T18:54:08.967Z,1.02
2022-12-28T18:56:36.691Z,0.85
2022-12-28T18:59:05.299Z,0.95
2022-12-28T19:04:30.921Z,1.30
2022-12-28T19:07:01.525Z,1.13
2022-12-28T19:09:33.342Z,1.27
2022-12-28T19:12:06.797Z,1.35
2022-12-28T19:14:37.056Z,1.23
2022-12-28T19:17:07.372Z,1.60
2022-12-28T19:19:37.922Z,1.30
2022-12-28T19:22:11.676Z,1.38
2022-12-28T19:24:42.147Z,1.45
2022-12-28T19:27:31.866Z,1.15
2022-12-28T19:30:05.462Z,1.52
2022-12-28T19:32:33.131Z,1.30
2022-12-28T19:35:03.935Z,1.92
2022-12-28T19:37:31.608Z,1.25
2022-12-28T19:40:02.232Z,1.17
2022-12-28T19:42:29.653Z,1.23
2022-12-28T19:44:57.092Z,0.95
2022-12-28T19:47:24.172Z,1.20
2022-12-28T19:49:54.904Z,1.20
2022-12-28T19:52:29.979Z,1.30
2022-12-28T19:55:03.056Z,1.35
2022-12-28T19:57:39.248Z,1.25
2022-12-28T20:00:09.808Z,1.27
2022-12-28T20:02:43.295Z,1.02
2022-12-28T20:05:13.526Z,1.15
2022-12-28T20:07:49.600Z,1.25
2022-12-28T20:10:20.314Z,1.33
2022-12-28T20:12:51.161Z,1.27
2022-12-28T20:15:21.472Z,1.08
2022-12-28T20:17:53.481Z,1.15
2022-12-28T20:20:27.060Z,1.90
2022-12-28T20:23:05.758Z,1.70
2022-12-28T20:25:39.771Z,1.40
2022-12-28T20:28:15.693Z,1.50
2022-12-28T20:30:48.302Z,0.90
2022-12-28T20:33:20.148Z,1.05
2022-12-28T20:35:58.077Z,1.10
2022-12-28T20:38:29.723Z,1.30
2022-12-28T20:41:07.573Z,1.90
2022-12-28T20:43:41.724Z,1.88
2022-12-28T20:46:17.535Z,2.17
2022-12-28T20:48:49.088Z,1.70
2022-12-28T20:51:19.254Z,1.83
2022-12-28T20:53:49.901Z,1.65
2022-12-28T20:56:26.482Z,1.40
2022-12-28T20:59:02.456Z,1.63
2022-12-28T21:01:32.762Z,2.00
2022-12-28T21:04:03.614Z,2.25
2022-12-28T21:06:40.323Z,2.05
2022-12-28T21:09:10.811Z,1.75
2022-12-28T21:11:39.220Z,1.30
2022-12-28T21:14:11.374Z,1.52
2022-12-28T21:16:45.004Z,1.20
2022-12-28T21:19:18.400Z,1.10
2022-12-28T21:21:49.207Z,1.00
2022-12-28T21:24:16.514Z,1.10
2022-12-28T21:26:43.835Z,1.08
2022-12-28T21:29:22.149Z,1.30
2022-12-28T21:31:58.926Z,1.02
2022-12-28T21:34:29.356Z,1.30
2022-12-28T21:37:19.783Z,1.00
2022-12-28T21:39:48.057Z,1.08
2022-12-28T21:42:18.447Z,1.20
2022-12-28T21:44:59.020Z,1.08
2022-12-28T21:47:31.697Z,1.00
2022-12-28T21:50:04.955Z,1.10
2022-12-28T21:52:34.657Z,1.25
2022-12-28T21:55:23.554Z,0.82
2022-12-28T21:57:54.207Z,1.13
2022-12-28T22:00:40.016Z,1.38
2022-12-28T22:03:25.860Z,1.30
2022-12-28T22:06:04.817Z,1.13
2022-12-28T22:09:11.493Z,1.42
2022-12-28T22:11:57.020Z,1.45
2022-12-28T22:14:31.013Z,1.00
2022-12-28T22:17:00.950Z,1.33
2022-12-28T22:19:34.334Z,1.00
2022-12-28T22:22:04.653Z,0.85
2022-12-28T22:24:35.716Z,1.40
2022-12-28T22:27:09.728Z,0.98
2022-12-28T22:29:42.884Z,1.10
2022-12-28T22:32:12.625Z,1.10
2022-12-28T22:34:42.009Z,1.10
2022-12-28T22:37:12.311Z,1.50
2022-12-28T22:39:40.861Z,1.45
2022-12-28T22:42:12.156Z,1.50
2022-12-28T22:44:39.505Z,1.77
2022-12-28T22:47:15.493Z,1.45
2022-12-28T22:49:46.045Z,1.30
2022-12-28T22:52:19.180Z,1.45
2022-12-28T22:54:49.184Z,1.15
2022-12-28T22:57:25.459Z,1.23
2022-12-28T22:59:53.462Z,1.30
2022-12-28T23:02:20.975Z,1.23
2022-12-28T23:04:53.978Z,1.40
2022-12-28T23:07:24.257Z,1.38
2022-12-28T23:09:51.474Z,1.20
2022-12-28T23:12:21.959Z,1.40
2022-12-28T23:15:08.377Z,1.40
2022-12-28T23:17:41.491Z,1.50
2022-12-28T23:20:28.298Z,1.00
2022-12-28T23:23:16.578Z,1.00
2022-12-28T23:26:04.757Z,1.40
2022-12-28T23:28:34.564Z,1.10
2022-12-28T23:31:07.996Z,1.20
2022-12-28T23:33:40.299Z,1.52
2022-12-28T23:36:11.409Z,1.10
2022-12-28T23:38:41.339Z,1.20
2022-12-28T23:41:30.340Z,1.30
2022-12-28T23:44:03.012Z,1.23
2022-12-28T23:46:34.066Z,1.45
2022-12-28T23:49:02.128Z,1.02
2022-12-28T23:51:34.027Z,1.20
2022-12-28T23:54:04.650Z,1.30
2022-12-28T23:56:38.888Z,1.30
2022-12-28T23:59:06.285Z,1.33
